createdAt,value
2023-01-26T00:00:40.872Z,695.21951
2023-01-26T00:05:42.522Z,704.49383
2023-01-26T00:10:44.215Z,686.16867
2023-01-26T00:15:46.222Z,668.70588
2023-01-26T00:20:47.838Z,677.33333
2023-01-26T00:25:49.511Z,677.33333
2023-01-26T00:30:51.151Z,636.13483
2023-01-26T00:35:52.777Z,628.44444
2023-01-26T00:40:54.411Z,628.44444
2023-01-26T00:45:56.096Z,660.27907
2023-01-26T00:50:57.724Z,695.21951
2023-01-26T00:55:59.427Z,668.70588
2023-01-26T01:01:01.207Z,652.04598
2023-01-26T01:06:03.009Z,660.27907
2023-01-26T01:11:05.083Z,599.31915
2023-01-26T01:16:06.798Z,599.31915
2023-01-26T01:21:08.594Z,606.36559
2023-01-26T01:26:10.209Z,606.36559
2023-01-26T01:31:11.977Z,636.13483
2023-01-26T01:36:13.693Z,668.70588
2023-01-26T01:41:15.322Z,660.27907
2023-01-26T01:46:17.008Z,620.92308
2023-01-26T01:51:18.680Z,628.44444
2023-01-26T01:56:20.321Z,620.92308
2023-01-26T02:01:22.076Z,652.04598
2023-01-26T02:06:23.756Z,628.44444
2023-01-26T02:11:25.399Z,620.92308
2023-01-26T02:16:27.123Z,613.56522
2023-01-26T02:21:28.799Z,613.56522
2023-01-26T02:26:30.709Z,613.56522
2023-01-26T02:31:32.422Z,636.13483
2023-01-26T02:36:34.191Z,644
2023-01-26T02:41:35.950Z,636.13483
2023-01-26T02:46:37.626Z,628.44444
2023-01-26T02:51:39.238Z,652.04598
2023-01-26T02:56:41.094Z,644
2023-01-26T03:01:42.746Z,636.13483
2023-01-26T03:06:45.051Z,620.92308
2023-01-26T03:11:46.672Z,652.04598
2023-01-26T03:16:48.351Z,652.04598
2023-01-26T03:21:49.994Z,652.04598
2023-01-26T03:26:51.672Z,668.70588
2023-01-26T03:31:53.339Z,660.27907
2023-01-26T03:36:55.036Z,660.27907
2023-01-26T03:41:56.708Z,686.16867
2023-01-26T03:46:58.454Z,704.49383
2023-01-26T03:52:00.146Z,704.49383
2023-01-26T03:57:01.812Z,723.74684
2023-01-26T04:02:03.613Z,714
2023-01-26T04:07:05.348Z,660.27907
2023-01-26T04:12:06.965Z,704.49383
2023-01-26T04:17:08.865Z,704.49383
2023-01-26T04:22:11.822Z,714
2023-01-26T04:27:13.914Z,660.27907
2023-01-26T04:32:15.703Z,677.33333
2023-01-26T04:37:17.325Z,668.70588
2023-01-26T04:42:19.459Z,660.27907
2023-01-26T04:47:21.159Z,660.27907
2023-01-26T04:52:22.953Z,668.70588
2023-01-26T04:57:24.564Z,695.21951
2023-01-26T05:02:26.203Z,695.21951
2023-01-26T05:07:28.067Z,704.49383
2023-01-26T05:12:29.776Z,695.21951
2023-01-26T05:17:31.445Z,695.21951
2023-01-26T05:22:33.280Z,677.33333
2023-01-26T05:27:35.159Z,660.27907
2023-01-26T05:32:37.742Z,668.70588
2023-01-26T05:37:39.792Z,677.33333
2023-01-26T05:42:41.488Z,704.49383
2023-01-26T05:47:43.148Z,695.21951
2023-01-26T05:52:44.759Z,744
2023-01-26T05:57:46.589Z,723.74684
2023-01-26T06:02:49.082Z,695.21951
2023-01-26T06:07:52.321Z,723.74684
2023-01-26T06:12:54.082Z,714
2023-01-26T06:17:55.967Z,723.74684
2023-01-26T06:22:57.639Z,765.33333
2023-01-26T06:27:59.287Z,754.52632
2023-01-26T06:33:01.157Z,733.74359
2023-01-26T06:38:02.834Z,714
2023-01-26T06:43:04.518Z,714
2023-01-26T06:48:06.197Z,765.33333
2023-01-26T06:53:08.084Z,776.43243
2023-01-26T06:58:10.517Z,765.33333
2023-01-26T07:03:12.319Z,765.33333
2023-01-26T07:08:13.999Z,744
2023-01-26T07:13:15.667Z,714
2023-01-26T07:18:17.265Z,733.74359
2023-01-26T07:23:18.894Z,733.74359
2023-01-26T07:28:20.697Z,744
2023-01-26T07:33:22.348Z,765.33333
2023-01-26T07:38:24.299Z,744
2023-01-26T07:43:26.052Z,765.33333
2023-01-26T07:48:27.693Z,754.52632
2023-01-26T07:53:29.379Z,733.74359
2023-01-26T07:58:31.097Z,714
2023-01-26T08:03:32.718Z,744
2023-01-26T08:08:34.552Z,744
2023-01-26T08:13:36.444Z,744
2023-01-26T08:18:38.170Z,754.52632
2023-01-26T08:23:39.837Z,754.52632
2023-01-26T08:28:41.460Z,744
2023-01-26T08:33:43.158Z,754.52632
2023-01-26T08:38:44.789Z,744
2023-01-26T08:43:46.308Z,744
2023-01-26T08:48:47.883Z,754.52632
2023-01-26T08:53:49.501Z,733.74359
2023-01-26T08:58:51.155Z,744
2023-01-26T09:03:52.790Z,776.43243
2023-01-26T09:08:54.459Z,799.55556
2023-01-26T09:13:56.029Z,776.43243
2023-01-26T09:18:57.612Z,799.55556
2023-01-26T09:23:59.331Z,799.55556
2023-01-26T09:29:00.965Z,765.33333
2023-01-26T09:34:02.657Z,787.83562
2023-01-26T09:39:04.348Z,787.83562
2023-01-26T09:44:05.955Z,744
2023-01-26T09:49:07.559Z,765.33333
2023-01-26T09:54:09.190Z,787.83562
2023-01-26T09:59:10.815Z,811.60563
2023-01-26T10:04:12.499Z,799.55556
2023-01-26T10:09:14.119Z,799.55556
2023-01-26T10:14:15.961Z,799.55556
2023-01-26T10:19:17.599Z,765.33333
2023-01-26T10:24:19.226Z,754.52632
2023-01-26T10:29:20.904Z,787.83562
2023-01-26T10:34:22.694Z,776.43243
2023-01-26T10:39:24.362Z,787.83562
2023-01-26T10:44:25.977Z,863.40299
2023-01-26T10:49:27.688Z,891.69231
2023-01-26T10:54:29.354Z,849.88235
2023-01-26T10:59:31.163Z,824
2023-01-26T11:04:32.836Z,824
2023-01-26T11:09:34.614Z,836.75362
2023-01-26T11:14:36.216Z,863.40299
2023-01-26T11:19:37.895Z,849.88235
2023-01-26T11:24:42.413Z,921.77778
2023-01-26T11:29:44.158Z,906.5
2023-01-26T11:34:45.771Z,877.33333
2023-01-26T11:39:47.490Z,836.75362
2023-01-26T11:44:49.158Z,811.60563
2023-01-26T11:49:50.789Z,836.75362
2023-01-26T11:54:52.481Z,849.88235
2023-01-26T11:59:54.198Z,849.88235
2023-01-26T12:04:55.854Z,824
2023-01-26T12:09:57.464Z,836.75362
2023-01-26T12:14:59.159Z,836.75362
2023-01-26T12:20:00.849Z,824
2023-01-26T12:25:28.647Z,836.75362
2023-01-26T12:30:30.722Z,811.60563
2023-01-26T12:35:32.578Z,849.88235
2023-01-26T12:40:34.195Z,799.55556
2023-01-26T12:45:35.985Z,799.55556
2023-01-26T12:50:37.732Z,849.88235
2023-01-26T12:55:39.356Z,836.75362
2023-01-26T13:00:41.143Z,849.88235
2023-01-26T13:05:42.782Z,863.40299
2023-01-26T13:10:44.467Z,849.88235
2023-01-26T13:15:46.273Z,891.69231
2023-01-26T13:20:47.987Z,863.40299
2023-01-26T13:25:56.409Z,811.60563
2023-01-26T13:30:58.455Z,849.88235
2023-01-26T13:36:00.150Z,787.83562
2023-01-26T13:41:01.952Z,787.83562
2023-01-26T13:46:03.604Z,811.60563
2023-01-26T13:51:05.484Z,787.83562
2023-01-26T13:56:07.375Z,677.33333
2023-01-26T14:01:09.009Z,677.33333
2023-01-26T14:06:10.719Z,754.52632
2023-01-26T14:11:12.538Z,754.52632
2023-01-26T14:16:14.307Z,754.52632
2023-01-26T14:21:16.138Z,714
2023-01-26T14:26:17.929Z,744
2023-01-26T14:31:19.541Z,704.49383
2023-01-26T14:36:21.147Z,733.74359
2023-01-26T14:41:22.795Z,744
2023-01-26T14:46:24.540Z,723.74684
2023-01-26T14:51:26.251Z,811.60563
2023-01-26T14:56:27.877Z,787.83562
2023-01-26T15:01:29.607Z,765.33333
2023-01-26T15:06:31.219Z,765.33333
2023-01-26T15:11:33.084Z,765.33333
2023-01-26T15:16:34.824Z,723.74684
2023-01-26T15:21:36.633Z,733.74359
2023-01-26T15:26:38.237Z,765.33333
2023-01-26T15:31:39.848Z,754.52632
2023-01-26T15:36:41.699Z,765.33333
2023-01-26T15:41:43.324Z,787.83562
2023-01-26T15:46:44.987Z,776.43243
2023-01-26T15:51:46.692Z,776.43243
2023-01-26T15:56:48.299Z,787.83562
2023-01-26T16:01:50.052Z,765.33333
2023-01-26T16:06:51.737Z,723.74684
2023-01-26T16:11:53.385Z,714
2023-01-26T16:16:55.020Z,744
2023-01-26T16:21:56.645Z,776.43243
2023-01-26T16:26:58.340Z,744
2023-01-26T16:32:00.004Z,765.33333
2023-01-26T16:37:01.814Z,776.43243
2023-01-26T16:42:03.524Z,849.88235
2023-01-26T16:47:05.157Z,906.5
2023-01-26T16:52:06.745Z,906.5
2023-01-26T16:57:08.338Z,891.69231
2023-01-26T17:02:10.091Z,891.69231
2023-01-26T17:07:11.715Z,921.77778
2023-01-26T17:12:13.367Z,937.54839
2023-01-26T17:17:15.084Z,921.77778
2023-01-26T17:22:16.672Z,937.54839
2023-01-26T17:27:18.283Z,906.5
2023-01-26T17:32:19.989Z,906.5
2023-01-26T17:37:21.624Z,906.5
2023-01-26T17:42:23.227Z,906.5
2023-01-26T17:47:24.861Z,824
2023-01-26T17:52:26.496Z,849.88235
2023-01-26T17:57:28.169Z,849.88235
2023-01-26T18:02:29.934Z,836.75362
2023-01-26T18:07:31.638Z,863.40299
2023-01-26T18:12:33.255Z,877.33333
2023-01-26T18:17:34.854Z,877.33333
2023-01-26T18:22:36.496Z,891.69231
2023-01-26T18:27:38.235Z,891.69231
2023-01-26T18:32:39.905Z,906.5
2023-01-26T18:37:41.524Z,921.77778
2023-01-26T18:42:43.232Z,937.54839
2023-01-26T18:47:44.869Z,877.33333
2023-01-26T18:52:46.568Z,891.69231
2023-01-26T18:57:48.188Z,906.5
2023-01-26T19:02:49.773Z,877.33333
2023-01-26T19:07:51.634Z,877.33333
2023-01-26T19:12:53.315Z,0
2023-01-26T19:17:54.928Z,0
2023-01-26T19:22:56.648Z,891.69231
2023-01-26T19:27:58.258Z,937.54839
2023-01-26T19:32:59.907Z,937.54839
2023-01-26T19:38:01.549Z,921.77778
2023-01-26T19:43:03.220Z,937.54839
2023-01-26T19:48:04.866Z,953.83607
2023-01-26T19:53:07.714Z,921.77778
2023-01-26T19:58:09.570Z,891.69231
2023-01-26T20:03:11.256Z,906.5
2023-01-26T20:08:12.951Z,891.69231
2023-01-26T20:13:14.759Z,0
2023-01-26T20:18:16.630Z,0
2023-01-26T20:23:18.275Z,0
2023-01-26T20:28:19.886Z,0
2023-01-26T20:33:21.477Z,0
2023-01-26T20:38:23.109Z,0
2023-01-26T20:43:24.835Z,0
2023-01-26T20:48:26.473Z,0
2023-01-26T20:53:28.172Z,0
2023-01-26T20:58:29.816Z,0
2023-01-26T21:03:31.459Z,0
2023-01-26T21:08:33.102Z,0
2023-01-26T21:13:34.794Z,0
2023-01-26T21:18:36.503Z,0
2023-01-26T21:23:38.325Z,0
2023-01-26T21:28:40.002Z,0
2023-01-26T21:33:41.649Z,0
2023-01-26T21:38:43.309Z,970.66667
2023-01-26T21:43:45.001Z,0
2023-01-26T21:48:46.659Z,0
2023-01-26T21:53:48.321Z,0
2023-01-26T21:58:49.957Z,0
2023-01-26T22:03:51.671Z,0
2023-01-26T22:08:53.521Z,937.54839
2023-01-26T22:13:55.189Z,970.66667
2023-01-26T22:18:56.947Z,0
2023-01-26T22:23:58.655Z,937.54839
2023-01-26T22:29:00.310Z,0
2023-01-26T22:34:02.010Z,0
2023-01-26T22:39:03.715Z,0
2023-01-26T22:44:05.338Z,863.40299
2023-01-26T22:49:07.077Z,0
2023-01-26T22:54:08.806Z,0
2023-01-26T22:59:10.531Z,906.5
2023-01-26T23:04:12.229Z,921.77778
2023-01-26T23:09:13.975Z,877.33333
2023-01-26T23:14:15.737Z,891.69231
2023-01-26T23:19:17.383Z,877.33333
2023-01-26T23:24:19.144Z,877.33333
2023-01-26T23:29:20.866Z,891.69231
2023-01-26T23:34:22.510Z,863.40299
2023-01-26T23:39:24.173Z,877.33333
2023-01-26T23:44:25.870Z,877.33333
2023-01-26T23:49:27.509Z,906.5
2023-01-26T23:54:29.102Z,906.5
2023-01-26T23:59:30.750Z,921.77778
